Terminal Aerodrome Forecast
Issued by NWS

Home | Current Version | Previous Version | Text Only | Print | Product List | Glossary On
Versions: 1 2 3 4 5 6 7 8 9 10 11 12 13 14 15 16 17 18 19 20
000
FTUS42 KGSP 240823 AAA
TAFGMU
TAF AMD
KGMU 240823Z 2408/2506 04006KT 6SM BR VCSH SCT007 BKN025
      TEMPO 2408/2412 5SM BR BKN007
     FM241300 03011KT P6SM VCSH BKN045 PROB30 2418/2424 4SM -TSRA
      OVC025CB
     FM250300 08004KT P6SM OVC030
     FM250500 VRB03KT 6SM BR OVC020=

USA.gov is the U.S. government's official web portal to all federal, state and local government web resources and services.